sensor_id;sensor_type;location;lat;lon;timestamp;temperature;humidity
108;DHT22;49;48.530;9.200;2022-09-25T00:00:55;17.00;1.10
108;DHT22;49;48.530;9.200;2022-09-25T00:03:23;17.20;1.90
108;DHT22;49;48.530;9.200;2022-09-25T00:05:58;17.20;1.00
108;DHT22;49;48.530;9.200;2022-09-25T00:08:27;17.40;1.00
108;DHT22;49;48.530;9.200;2022-09-25T00:10:53;17.40;1.00
108;DHT22;49;48.530;9.200;2022-09-25T00:13:20;17.30;1.00
108;DHT22;49;48.530;9.200;2022-09-25T00:15:49;17.50;1.10
108;DHT22;49;48.530;9.200;2022-09-25T00:18:17;17.50;1.00
108;DHT22;49;48.530;9.200;2022-09-25T00:21:09;17.50;1.00
108;DHT22;49;48.530;9.200;2022-09-25T00:23:37;17.60;1.00
108;DHT22;49;48.530;9.200;2022-09-25T00:26:05;17.70;1.00
108;DHT22;49;48.530;9.200;2022-09-25T00:28:33;17.70;1.00
108;DHT22;49;48.530;9.200;2022-09-25T00:31:01;17.80;1.00
108;DHT22;49;48.530;9.200;2022-09-25T00:33:28;17.90;1.00
108;DHT22;49;48.530;9.200;2022-09-25T00:35:59;18.00;1.00
108;DHT22;49;48.530;9.200;2022-09-25T00:38:29;17.80;1.00
108;DHT22;49;48.530;9.200;2022-09-25T00:40:57;18.00;1.00
108;DHT22;49;48.530;9.200;2022-09-25T00:43:36;17.90;1.00
108;DHT22;49;48.530;9.200;2022-09-25T00:46:08;17.80;1.00
108;DHT22;49;48.530;9.200;2022-09-25T00:48:37;17.90;1.00
108;DHT22;49;48.530;9.200;2022-09-25T00:51:06;17.90;1.00
108;DHT22;49;48.530;9.200;2022-09-25T00:53:37;18.00;1.00
108;DHT22;49;48.530;9.200;2022-09-25T00:56:07;17.90;1.00
108;DHT22;49;48.530;9.200;2022-09-25T00:58:37;17.70;1.00
108;DHT22;49;48.530;9.200;2022-09-25T01:01:06;17.90;1.00
108;DHT22;49;48.530;9.200;2022-09-25T01:03:33;17.60;1.00
108;DHT22;49;48.530;9.200;2022-09-25T01:06:01;17.90;1.00
108;DHT22;49;48.530;9.200;2022-09-25T01:08:30;17.70;1.00
108;DHT22;49;48.530;9.200;2022-09-25T01:10:59;17.80;1.00
108;DHT22;49;48.530;9.200;2022-09-25T01:13:27;17.70;1.00
108;DHT22;49;48.530;9.200;2022-09-25T01:15:58;17.60;1.00
108;DHT22;49;48.530;9.200;2022-09-25T01:18:43;17.60;1.00
108;DHT22;49;48.530;9.200;2022-09-25T01:21:23;17.80;1.00
108;DHT22;49;48.530;9.200;2022-09-25T01:27:32;17.20;1.00
108;DHT22;49;48.530;9.200;2022-09-25T01:30:13;17.10;1.00
108;DHT22;49;48.530;9.200;2022-09-25T01:32:56;17.30;1.00
108;DHT22;49;48.530;9.200;2022-09-25T01:35:41;17.60;1.00
108;DHT22;49;48.530;9.200;2022-09-25T01:38:20;17.60;1.00
108;DHT22;49;48.530;9.200;2022-09-25T01:40:57;17.50;1.00
108;DHT22;49;48.530;9.200;2022-09-25T01:43:33;17.30;1.00
108;DHT22;49;48.530;9.200;2022-09-25T01:46:07;17.40;1.00
108;DHT22;49;48.530;9.200;2022-09-25T01:48:38;17.50;1.00
108;DHT22;49;48.530;9.200;2022-09-25T01:51:12;17.40;1.00
108;DHT22;49;48.530;9.200;2022-09-25T01:53:44;16.70;1.00
108;DHT22;49;48.530;9.200;2022-09-25T01:56:17;16.00;1.00
108;DHT22;49;48.530;9.200;2022-09-25T01:58:50;15.50;1.00
108;DHT22;49;48.530;9.200;2022-09-25T02:01:23;15.30;1.00
108;DHT22;49;48.530;9.200;2022-09-25T02:03:56;15.90;2.60
108;DHT22;49;48.530;9.200;2022-09-25T02:06:25;16.20;1.40
108;DHT22;49;48.530;9.200;2022-09-25T02:08:55;16.70;2.00
108;DHT22;49;48.530;9.200;2022-09-25T02:11:29;16.80;1.00
108;DHT22;49;48.530;9.200;2022-09-25T02:14:03;16.60;1.00
108;DHT22;49;48.530;9.200;2022-09-25T02:16:36;16.50;1.00
108;DHT22;49;48.530;9.200;2022-09-25T02:19:08;16.30;1.00
108;DHT22;49;48.530;9.200;2022-09-25T02:22:01;16.20;1.00
108;DHT22;49;48.530;9.200;2022-09-25T02:24:34;16.30;1.00
108;DHT22;49;48.530;9.200;2022-09-25T02:27:03;16.40;1.00
108;DHT22;49;48.530;9.200;2022-09-25T02:29:30;16.00;1.00
108;DHT22;49;48.530;9.200;2022-09-25T02:32:02;15.30;1.00
108;DHT22;49;48.530;9.200;2022-09-25T02:34:30;14.80;2.40
108;DHT22;49;48.530;9.200;2022-09-25T02:36:58;15.20;4.30
108;DHT22;49;48.530;9.200;2022-09-25T02:39:28;15.50;2.50
108;DHT22;49;48.530;9.200;2022-09-25T02:42:17;15.70;1.20
108;DHT22;49;48.530;9.200;2022-09-25T02:44:59;15.80;2.10
108;DHT22;49;48.530;9.200;2022-09-25T02:47:34;16.10;2.70
108;DHT22;49;48.530;9.200;2022-09-25T02:50:14;16.50;1.90
108;DHT22;49;48.530;9.200;2022-09-25T02:52:46;16.70;1.00
108;DHT22;49;48.530;9.200;2022-09-25T02:55:20;16.90;1.00
108;DHT22;49;48.530;9.200;2022-09-25T02:57:54;16.80;1.00
108;DHT22;49;48.530;9.200;2022-09-25T03:00:21;16.90;1.00
108;DHT22;49;48.530;9.200;2022-09-25T03:02:53;16.70;1.00
108;DHT22;49;48.530;9.200;2022-09-25T03:05:22;16.70;1.00
108;DHT22;49;48.530;9.200;2022-09-25T03:07:51;16.70;1.00
108;DHT22;49;48.530;9.200;2022-09-25T03:10:36;16.20;1.00
108;DHT22;49;48.530;9.200;2022-09-25T03:13:22;16.10;1.00
108;DHT22;49;48.530;9.200;2022-09-25T03:15:55;16.30;1.00
108;DHT22;49;48.530;9.200;2022-09-25T03:18:26;16.60;1.90
108;DHT22;49;48.530;9.200;2022-09-25T03:20:53;16.80;1.00
108;DHT22;49;48.530;9.200;2022-09-25T03:23:20;17.00;1.00
108;DHT22;49;48.530;9.200;2022-09-25T03:25:47;17.00;1.00
108;DHT22;49;48.530;9.200;2022-09-25T03:28:14;17.20;1.00
108;DHT22;49;48.530;9.200;2022-09-25T03:30:41;17.30;1.00
108;DHT22;49;48.530;9.200;2022-09-25T03:33:10;17.30;1.00
108;DHT22;49;48.530;9.200;2022-09-25T03:35:38;17.20;1.00
108;DHT22;49;48.530;9.200;2022-09-25T03:38:05;17.30;1.00
108;DHT22;49;48.530;9.200;2022-09-25T03:40:34;17.20;1.00
108;DHT22;49;48.530;9.200;2022-09-25T03:43:01;17.20;1.00
108;DHT22;49;48.530;9.200;2022-09-25T03:45:28;17.50;1.00
108;DHT22;49;48.530;9.200;2022-09-25T03:47:55;17.70;1.00
108;DHT22;49;48.530;9.200;2022-09-25T03:50:22;17.40;1.00
108;DHT22;49;48.530;9.200;2022-09-25T03:52:50;17.10;1.00
108;DHT22;49;48.530;9.200;2022-09-25T03:55:17;17.20;1.00
108;DHT22;49;48.530;9.200;2022-09-25T03:57:44;16.90;1.00
108;DHT22;49;48.530;9.200;2022-09-25T04:00:12;16.80;1.00
108;DHT22;49;48.530;9.200;2022-09-25T04:02:39;17.10;1.20
108;DHT22;49;48.530;9.200;2022-09-25T04:05:06;17.00;1.00
108;DHT22;49;48.530;9.200;2022-09-25T04:07:33;17.30;1.00
108;DHT22;49;48.530;9.200;2022-09-25T04:10:02;17.40;1.00
108;DHT22;49;48.530;9.200;2022-09-25T04:12:29;17.40;1.00
108;DHT22;49;48.530;9.200;2022-09-25T04:14:55;17.30;1.00
108;DHT22;49;48.530;9.200;2022-09-25T04:17:22;17.10;1.00
108;DHT22;49;48.530;9.200;2022-09-25T04:19:49;16.90;1.00
108;DHT22;49;48.530;9.200;2022-09-25T04:22:16;16.90;1.00
108;DHT22;49;48.530;9.200;2022-09-25T04:24:43;16.50;1.00
108;DHT22;49;48.530;9.200;2022-09-25T04:27:19;16.90;2.00
108;DHT22;49;48.530;9.200;2022-09-25T04:29:48;17.00;1.00
108;DHT22;49;48.530;9.200;2022-09-25T04:32:16;16.90;1.00
108;DHT22;49;48.530;9.200;2022-09-25T04:35:00;16.80;1.00
108;DHT22;49;48.530;9.200;2022-09-25T04:37:27;16.90;1.00
108;DHT22;49;48.530;9.200;2022-09-25T04:39:55;17.30;1.00
108;DHT22;49;48.530;9.200;2022-09-25T04:42:24;17.40;1.00
108;DHT22;49;48.530;9.200;2022-09-25T04:44:51;17.10;1.00
108;DHT22;49;48.530;9.200;2022-09-25T04:47:19;17.00;1.00
108;DHT22;49;48.530;9.200;2022-09-25T04:49:47;17.10;1.00
108;DHT22;49;48.530;9.200;2022-09-25T04:52:15;17.30;1.00
108;DHT22;49;48.530;9.200;2022-09-25T04:54:42;17.10;1.00
108;DHT22;49;48.530;9.200;2022-09-25T04:57:12;16.90;1.00
108;DHT22;49;48.530;9.200;2022-09-25T04:59:41;16.70;1.00
108;DHT22;49;48.530;9.200;2022-09-25T05:02:08;16.60;1.00
108;DHT22;49;48.530;9.200;2022-09-25T05:04:35;16.80;1.70
108;DHT22;49;48.530;9.200;2022-09-25T05:07:02;16.90;1.00
108;DHT22;49;48.530;9.200;2022-09-25T05:09:29;16.90;1.00
108;DHT22;49;48.530;9.200;2022-09-25T05:11:55;17.10;1.00
108;DHT22;49;48.530;9.200;2022-09-25T05:14:23;17.40;1.00
108;DHT22;49;48.530;9.200;2022-09-25T05:16:51;17.60;1.00
108;DHT22;49;48.530;9.200;2022-09-25T05:19:18;17.70;1.00
108;DHT22;49;48.530;9.200;2022-09-25T05:21:45;17.40;1.00
108;DHT22;49;48.530;9.200;2022-09-25T05:24:12;17.60;1.00
108;DHT22;49;48.530;9.200;2022-09-25T05:26:39;17.80;1.00
108;DHT22;49;48.530;9.200;2022-09-25T05:29:06;17.80;1.00
108;DHT22;49;48.530;9.200;2022-09-25T05:31:34;17.80;1.00
108;DHT22;49;48.530;9.200;2022-09-25T05:34:02;17.80;1.00
108;DHT22;49;48.530;9.200;2022-09-25T05:36:29;18.10;1.00
108;DHT22;49;48.530;9.200;2022-09-25T05:38:56;17.80;1.00
108;DHT22;49;48.530;9.200;2022-09-25T05:41:25;17.80;1.00
108;DHT22;49;48.530;9.200;2022-09-25T05:43:52;17.20;1.00
108;DHT22;49;48.530;9.200;2022-09-25T05:46:19;16.90;1.00
108;DHT22;49;48.530;9.200;2022-09-25T05:48:46;16.80;1.00
108;DHT22;49;48.530;9.200;2022-09-25T05:51:14;17.10;1.00
108;DHT22;49;48.530;9.200;2022-09-25T05:53:41;17.30;1.00
108;DHT22;49;48.530;9.200;2022-09-25T05:56:09;17.20;1.00
108;DHT22;49;48.530;9.200;2022-09-25T05:58:36;17.10;1.00
108;DHT22;49;48.530;9.200;2022-09-25T06:01:05;17.10;1.00
108;DHT22;49;48.530;9.200;2022-09-25T06:03:32;17.00;1.00
108;DHT22;49;48.530;9.200;2022-09-25T06:05:59;17.00;1.00
108;DHT22;49;48.530;9.200;2022-09-25T06:08:29;17.10;1.00
108;DHT22;49;48.530;9.200;2022-09-25T06:10:56;17.00;1.00
108;DHT22;49;48.530;9.200;2022-09-25T06:13:23;17.00;1.00
108;DHT22;49;48.530;9.200;2022-09-25T06:15:51;17.10;1.00
108;DHT22;49;48.530;9.200;2022-09-25T06:18:19;17.10;1.00
108;DHT22;49;48.530;9.200;2022-09-25T06:20:47;17.10;1.00
108;DHT22;49;48.530;9.200;2022-09-25T06:23:15;17.30;1.00
108;DHT22;49;48.530;9.200;2022-09-25T06:25:44;17.30;1.00
108;DHT22;49;48.530;9.200;2022-09-25T06:28:11;17.30;1.00
108;DHT22;49;48.530;9.200;2022-09-25T06:30:38;17.40;1.00
108;DHT22;49;48.530;9.200;2022-09-25T06:33:07;17.10;1.00
108;DHT22;49;48.530;9.200;2022-09-25T06:35:40;17.10;1.00
108;DHT22;49;48.530;9.200;2022-09-25T06:38:07;16.80;1.00
108;DHT22;49;48.530;9.200;2022-09-25T06:40:34;17.00;2.40
108;DHT22;49;48.530;9.200;2022-09-25T06:43:04;17.50;4.10
108;DHT22;49;48.530;9.200;2022-09-25T06:45:33;18.10;1.00
108;DHT22;49;48.530;9.200;2022-09-25T06:48:02;18.10;1.00
108;DHT22;49;48.530;9.200;2022-09-25T06:50:34;18.10;1.00
108;DHT22;49;48.530;9.200;2022-09-25T06:53:03;18.40;1.00
108;DHT22;49;48.530;9.200;2022-09-25T06:55:30;18.60;1.00
108;DHT22;49;48.530;9.200;2022-09-25T06:57:59;18.80;1.00
108;DHT22;49;48.530;9.200;2022-09-25T07:00:27;19.20;1.00
108;DHT22;49;48.530;9.200;2022-09-25T07:02:56;19.50;1.00
108;DHT22;49;48.530;9.200;2022-09-25T07:05:40;19.50;1.00
108;DHT22;49;48.530;9.200;2022-09-25T07:08:09;19.10;1.00
108;DHT22;49;48.530;9.200;2022-09-25T07:10:37;19.30;1.00
108;DHT22;49;48.530;9.200;2022-09-25T07:13:04;19.20;1.00
108;DHT22;49;48.530;9.200;2022-09-25T07:15:32;19.30;1.00
108;DHT22;49;48.530;9.200;2022-09-25T07:17:59;19.60;1.00
108;DHT22;49;48.530;9.200;2022-09-25T07:20:26;19.70;1.00
108;DHT22;49;48.530;9.200;2022-09-25T07:22:58;19.80;1.00
108;DHT22;49;48.530;9.200;2022-09-25T07:25:25;19.40;1.00
108;DHT22;49;48.530;9.200;2022-09-25T07:27:52;19.10;1.00
108;DHT22;49;48.530;9.200;2022-09-25T07:30:19;19.10;1.00
108;DHT22;49;48.530;9.200;2022-09-25T07:32:47;19.30;1.00
108;DHT22;49;48.530;9.200;2022-09-25T07:35:14;19.60;1.00
108;DHT22;49;48.530;9.200;2022-09-25T07:37:41;19.30;1.00
108;DHT22;49;48.530;9.200;2022-09-25T07:40:08;18.90;1.00
108;DHT22;49;48.530;9.200;2022-09-25T07:42:39;18.40;1.00
108;DHT22;49;48.530;9.200;2022-09-25T07:45:07;18.60;1.00
108;DHT22;49;48.530;9.200;2022-09-25T07:47:34;18.60;1.00
108;DHT22;49;48.530;9.200;2022-09-25T07:50:03;18.50;1.00
108;DHT22;49;48.530;9.200;2022-09-25T07:52:30;18.30;1.00
108;DHT22;49;48.530;9.200;2022-09-25T07:54:57;18.10;1.00
108;DHT22;49;48.530;9.200;2022-09-25T07:57:24;18.40;1.00
108;DHT22;49;48.530;9.200;2022-09-25T07:59:52;18.40;1.00
108;DHT22;49;48.530;9.200;2022-09-25T08:02:19;18.30;1.00
108;DHT22;49;48.530;9.200;2022-09-25T08:04:46;18.10;1.10
108;DHT22;49;48.530;9.200;2022-09-25T08:07:14;18.10;1.00
108;DHT22;49;48.530;9.200;2022-09-25T08:09:41;18.30;1.00
108;DHT22;49;48.530;9.200;2022-09-25T08:12:10;18.70;1.00
108;DHT22;49;48.530;9.200;2022-09-25T08:14:38;19.00;1.00
108;DHT22;49;48.530;9.200;2022-09-25T08:17:06;19.30;1.00
108;DHT22;49;48.530;9.200;2022-09-25T08:19:33;19.50;1.00
108;DHT22;49;48.530;9.200;2022-09-25T08:22:00;19.60;1.00
108;DHT22;49;48.530;9.200;2022-09-25T08:24:28;19.50;1.00
108;DHT22;49;48.530;9.200;2022-09-25T08:26:55;19.60;1.00
108;DHT22;49;48.530;9.200;2022-09-25T08:29:21;19.90;1.00
108;DHT22;49;48.530;9.200;2022-09-25T08:31:49;19.40;1.00
108;DHT22;49;48.530;9.200;2022-09-25T08:34:16;18.90;1.00
108;DHT22;49;48.530;9.200;2022-09-25T08:36:43;18.80;1.00
108;DHT22;49;48.530;9.200;2022-09-25T08:39:10;19.00;1.00
108;DHT22;49;48.530;9.200;2022-09-25T08:41:45;19.10;1.00
108;DHT22;49;48.530;9.200;2022-09-25T08:44:20;18.90;1.00
108;DHT22;49;48.530;9.200;2022-09-25T08:46:53;18.50;1.00
108;DHT22;49;48.530;9.200;2022-09-25T08:49:42;18.60;1.00
108;DHT22;49;48.530;9.200;2022-09-25T08:52:14;18.90;1.00
108;DHT22;49;48.530;9.200;2022-09-25T08:54:42;19.20;1.00
108;DHT22;49;48.530;9.200;2022-09-25T08:57:17;19.60;1.00
108;DHT22;49;48.530;9.200;2022-09-25T08:59:51;20.00;1.00
108;DHT22;49;48.530;9.200;2022-09-25T09:02:22;20.10;1.00
108;DHT22;49;48.530;9.200;2022-09-25T09:04:53;20.30;1.00
108;DHT22;49;48.530;9.200;2022-09-25T09:07:24;20.30;1.00
108;DHT22;49;48.530;9.200;2022-09-25T09:09:56;20.60;1.00
108;DHT22;49;48.530;9.200;2022-09-25T09:12:34;20.50;1.00
108;DHT22;49;48.530;9.200;2022-09-25T09:15:16;20.40;1.00
108;DHT22;49;48.530;9.200;2022-09-25T09:17:44;20.40;1.00
108;DHT22;49;48.530;9.200;2022-09-25T09:20:16;20.20;1.00
108;DHT22;49;48.530;9.200;2022-09-25T09:22:47;19.90;1.00
108;DHT22;49;48.530;9.200;2022-09-25T09:25:25;19.50;1.00
108;DHT22;49;48.530;9.200;2022-09-25T09:28:11;19.60;1.00
108;DHT22;49;48.530;9.200;2022-09-25T09:30:46;20.00;1.00
108;DHT22;49;48.530;9.200;2022-09-25T09:33:30;20.30;1.00
108;DHT22;49;48.530;9.200;2022-09-25T09:36:07;20.00;1.00
108;DHT22;49;48.530;9.200;2022-09-25T09:38:45;20.30;1.00
108;DHT22;49;48.530;9.200;2022-09-25T09:41:24;20.40;1.00
108;DHT22;49;48.530;9.200;2022-09-25T09:44:08;20.50;1.00
108;DHT22;49;48.530;9.200;2022-09-25T09:46:47;21.00;1.00
108;DHT22;49;48.530;9.200;2022-09-25T09:49:20;21.10;1.00
108;DHT22;49;48.530;9.200;2022-09-25T09:51:53;20.70;1.00
108;DHT22;49;48.530;9.200;2022-09-25T09:54:28;20.90;1.00
108;DHT22;49;48.530;9.200;2022-09-25T09:57:00;21.40;1.00
108;DHT22;49;48.530;9.200;2022-09-25T09:59:42;21.80;1.00
108;DHT22;49;48.530;9.200;2022-09-25T10:02:21;22.20;1.00
108;DHT22;49;48.530;9.200;2022-09-25T10:04:53;22.20;1.00
108;DHT22;49;48.530;9.200;2022-09-25T10:07:22;21.90;1.00
108;DHT22;49;48.530;9.200;2022-09-25T10:09:50;22.00;1.00
108;DHT22;49;48.530;9.200;2022-09-25T10:12:25;22.30;1.00
108;DHT22;49;48.530;9.200;2022-09-25T10:14:57;22.20;1.00
108;DHT22;49;48.530;9.200;2022-09-25T10:17:28;21.70;1.00
108;DHT22;49;48.530;9.200;2022-09-25T10:19:59;21.90;1.00
108;DHT22;49;48.530;9.200;2022-09-25T10:22:31;21.90;1.00
108;DHT22;49;48.530;9.200;2022-09-25T10:25:01;22.20;1.00
108;DHT22;49;48.530;9.200;2022-09-25T10:27:31;22.10;1.00
108;DHT22;49;48.530;9.200;2022-09-25T10:30:04;22.10;1.00
108;DHT22;49;48.530;9.200;2022-09-25T10:32:34;22.10;1.00
108;DHT22;49;48.530;9.200;2022-09-25T10:35:02;22.30;1.00
108;DHT22;49;48.530;9.200;2022-09-25T10:37:31;22.50;1.00
108;DHT22;49;48.530;9.200;2022-09-25T10:40:03;22.30;1.00
108;DHT22;49;48.530;9.200;2022-09-25T10:42:36;22.40;1.00
108;DHT22;49;48.530;9.200;2022-09-25T10:45:29;22.30;1.00
108;DHT22;49;48.530;9.200;2022-09-25T10:47:56;22.30;1.00
108;DHT22;49;48.530;9.200;2022-09-25T10:50:41;22.70;1.00
108;DHT22;49;48.530;9.200;2022-09-25T10:53:23;22.80;1.00
108;DHT22;49;48.530;9.200;2022-09-25T10:56:00;22.60;1.00
108;DHT22;49;48.530;9.200;2022-09-25T10:58:35;22.60;1.00
108;DHT22;49;48.530;9.200;2022-09-25T11:01:06;22.70;1.00
108;DHT22;49;48.530;9.200;2022-09-25T11:03:45;22.30;1.00
108;DHT22;49;48.530;9.200;2022-09-25T11:06:23;22.40;1.00
108;DHT22;49;48.530;9.200;2022-09-25T11:09:02;22.40;1.00
108;DHT22;49;48.530;9.200;2022-09-25T11:11:30;22.50;1.00
108;DHT22;49;48.530;9.200;2022-09-25T11:13:59;22.30;1.00
108;DHT22;49;48.530;9.200;2022-09-25T11:16:47;22.40;1.00
108;DHT22;49;48.530;9.200;2022-09-25T11:19:19;21.90;1.00
108;DHT22;49;48.530;9.200;2022-09-25T11:21:54;22.30;1.00
108;DHT22;49;48.530;9.200;2022-09-25T11:24:31;21.90;1.00
108;DHT22;49;48.530;9.200;2022-09-25T11:27:07;22.00;1.00
108;DHT22;49;48.530;9.200;2022-09-25T11:29:44;22.30;1.00
108;DHT22;49;48.530;9.200;2022-09-25T11:32:22;22.20;1.00
108;DHT22;49;48.530;9.200;2022-09-25T11:35:24;22.20;1.00
108;DHT22;49;48.530;9.200;2022-09-25T11:38:02;22.10;1.00
108;DHT22;49;48.530;9.200;2022-09-25T11:40:39;22.10;1.00
108;DHT22;49;48.530;9.200;2022-09-25T11:43:47;21.80;1.00
108;DHT22;49;48.530;9.200;2022-09-25T11:46:21;21.80;1.00
108;DHT22;49;48.530;9.200;2022-09-25T11:48:59;21.70;1.00
108;DHT22;49;48.530;9.200;2022-09-25T11:54:35;21.60;1.00
108;DHT22;49;48.530;9.200;2022-09-25T11:57:10;21.40;1.00
108;DHT22;49;48.530;9.200;2022-09-25T11:59:53;21.50;1.00
108;DHT22;49;48.530;9.200;2022-09-25T12:02:43;21.40;1.00
108;DHT22;49;48.530;9.200;2022-09-25T12:05:38;21.50;1.00
108;DHT22;49;48.530;9.200;2022-09-25T12:08:19;21.20;1.00
108;DHT22;49;48.530;9.200;2022-09-25T12:10:55;21.00;1.00
108;DHT22;49;48.530;9.200;2022-09-25T12:13:36;20.90;1.00
108;DHT22;49;48.530;9.200;2022-09-25T12:16:16;21.10;1.00
108;DHT22;49;48.530;9.200;2022-09-25T12:19:08;21.10;1.00
108;DHT22;49;48.530;9.200;2022-09-25T12:21:46;21.10;1.00
108;DHT22;49;48.530;9.200;2022-09-25T12:24:27;21.20;1.00
108;DHT22;49;48.530;9.200;2022-09-25T12:27:04;21.30;1.00
108;DHT22;49;48.530;9.200;2022-09-25T12:29:48;21.20;1.00
108;DHT22;49;48.530;9.200;2022-09-25T12:32:29;20.90;1.00
108;DHT22;49;48.530;9.200;2022-09-25T12:35:14;20.60;1.00
108;DHT22;49;48.530;9.200;2022-09-25T12:37:48;20.90;1.00
108;DHT22;49;48.530;9.200;2022-09-25T12:40:24;21.20;1.00
108;DHT22;49;48.530;9.200;2022-09-25T12:42:58;21.30;1.00
108;DHT22;49;48.530;9.200;2022-09-25T12:45:32;21.50;1.00
108;DHT22;49;48.530;9.200;2022-09-25T12:48:09;21.50;1.00
108;DHT22;49;48.530;9.200;2022-09-25T12:50:47;21.60;1.00
108;DHT22;49;48.530;9.200;2022-09-25T12:53:28;21.20;1.00
108;DHT22;49;48.530;9.200;2022-09-25T12:56:03;20.90;1.00
108;DHT22;49;48.530;9.200;2022-09-25T12:58:44;20.90;1.00
108;DHT22;49;48.530;9.200;2022-09-25T13:01:19;21.30;1.00
108;DHT22;49;48.530;9.200;2022-09-25T13:03:59;21.40;1.00
108;DHT22;49;48.530;9.200;2022-09-25T13:06:38;21.70;1.00
108;DHT22;49;48.530;9.200;2022-09-25T13:09:17;22.10;1.00
108;DHT22;49;48.530;9.200;2022-09-25T13:11:52;22.10;1.00
108;DHT22;49;48.530;9.200;2022-09-25T13:14:29;21.80;1.00
108;DHT22;49;48.530;9.200;2022-09-25T13:16:57;21.80;1.00
108;DHT22;49;48.530;9.200;2022-09-25T13:22:00;22.20;1.00
108;DHT22;49;48.530;9.200;2022-09-25T13:24:44;22.10;1.00
108;DHT22;49;48.530;9.200;2022-09-25T13:27:16;22.20;1.00
108;DHT22;49;48.530;9.200;2022-09-25T13:29:54;22.40;1.00
108;DHT22;49;48.530;9.200;2022-09-25T13:32:24;21.50;1.00
108;DHT22;49;48.530;9.200;2022-09-25T13:34:55;20.70;1.00
108;DHT22;49;48.530;9.200;2022-09-25T13:37:27;20.60;1.00
108;DHT22;49;48.530;9.200;2022-09-25T13:39:59;20.80;1.00
108;DHT22;49;48.530;9.200;2022-09-25T13:42:45;21.00;1.00
108;DHT22;49;48.530;9.200;2022-09-25T13:45:33;21.00;1.00
108;DHT22;49;48.530;9.200;2022-09-25T13:48:31;21.00;1.00
108;DHT22;49;48.530;9.200;2022-09-25T13:51:25;21.00;1.00
108;DHT22;49;48.530;9.200;2022-09-25T13:53:55;21.30;1.00
108;DHT22;49;48.530;9.200;2022-09-25T13:56:45;21.50;1.00
108;DHT22;49;48.530;9.200;2022-09-25T13:59:38;21.60;1.00
108;DHT22;49;48.530;9.200;2022-09-25T14:02:41;21.60;1.00
108;DHT22;49;48.530;9.200;2022-09-25T14:05:14;21.60;1.00
108;DHT22;49;48.530;9.200;2022-09-25T14:07:44;21.50;1.00
108;DHT22;49;48.530;9.200;2022-09-25T14:10:12;21.70;1.00
108;DHT22;49;48.530;9.200;2022-09-25T14:12:46;20.90;1.00
108;DHT22;49;48.530;9.200;2022-09-25T14:15:23;21.00;1.00
108;DHT22;49;48.530;9.200;2022-09-25T14:17:54;21.30;1.00
108;DHT22;49;48.530;9.200;2022-09-25T14:20:30;21.20;1.00
108;DHT22;49;48.530;9.200;2022-09-25T14:23:01;20.80;1.00
108;DHT22;49;48.530;9.200;2022-09-25T14:25:32;20.70;1.00
108;DHT22;49;48.530;9.200;2022-09-25T14:28:03;20.90;1.00
108;DHT22;49;48.530;9.200;2022-09-25T14:30:31;21.10;1.00
108;DHT22;49;48.530;9.200;2022-09-25T14:33:24;21.40;1.00
108;DHT22;49;48.530;9.200;2022-09-25T14:36:04;21.50;1.00
108;DHT22;49;48.530;9.200;2022-09-25T14:38:50;21.50;1.00
108;DHT22;49;48.530;9.200;2022-09-25T14:41:55;21.50;1.00
108;DHT22;49;48.530;9.200;2022-09-25T14:44:50;21.60;1.00
108;DHT22;49;48.530;9.200;2022-09-25T14:47:19;21.30;1.00
108;DHT22;49;48.530;9.200;2022-09-25T14:49:50;21.40;1.00
108;DHT22;49;48.530;9.200;2022-09-25T14:52:21;21.40;1.00
108;DHT22;49;48.530;9.200;2022-09-25T14:54:51;21.20;1.00
108;DHT22;49;48.530;9.200;2022-09-25T14:57:25;21.10;1.00
108;DHT22;49;48.530;9.200;2022-09-25T14:59:56;21.40;1.00
108;DHT22;49;48.530;9.200;2022-09-25T15:02:27;21.60;1.00
108;DHT22;49;48.530;9.200;2022-09-25T15:04:57;21.70;1.00
108;DHT22;49;48.530;9.200;2022-09-25T15:07:25;21.90;1.00
108;DHT22;49;48.530;9.200;2022-09-25T15:09:53;21.70;1.00
108;DHT22;49;48.530;9.200;2022-09-25T15:12:25;21.30;1.00
108;DHT22;49;48.530;9.200;2022-09-25T15:15:00;21.30;1.00
108;DHT22;49;48.530;9.200;2022-09-25T15:17:29;21.30;1.00
108;DHT22;49;48.530;9.200;2022-09-25T15:19:57;21.00;1.00
108;DHT22;49;48.530;9.200;2022-09-25T15:22:32;20.70;1.00
108;DHT22;49;48.530;9.200;2022-09-25T15:27:29;19.80;1.00
108;DHT22;49;48.530;9.200;2022-09-25T15:29:58;19.40;1.00
108;DHT22;49;48.530;9.200;2022-09-25T15:32:31;19.40;1.00
108;DHT22;49;48.530;9.200;2022-09-25T15:35:07;19.60;1.00
108;DHT22;49;48.530;9.200;2022-09-25T15:37:35;20.00;1.00
108;DHT22;49;48.530;9.200;2022-09-25T15:40:19;20.20;1.00
108;DHT22;49;48.530;9.200;2022-09-25T15:42:48;19.90;1.00
108;DHT22;49;48.530;9.200;2022-09-25T15:45:38;19.80;1.00
108;DHT22;49;48.530;9.200;2022-09-25T15:48:23;19.60;1.00
108;DHT22;49;48.530;9.200;2022-09-25T15:50:53;19.70;1.00
108;DHT22;49;48.530;9.200;2022-09-25T15:53:26;19.60;1.00
108;DHT22;49;48.530;9.200;2022-09-25T15:56:11;19.50;1.00
108;DHT22;49;48.530;9.200;2022-09-25T15:58:44;19.00;1.00
108;DHT22;49;48.530;9.200;2022-09-25T16:01:16;19.00;1.00
108;DHT22;49;48.530;9.200;2022-09-25T16:04:15;19.30;1.00
108;DHT22;49;48.530;9.200;2022-09-25T16:06:57;19.50;1.00
108;DHT22;49;48.530;9.200;2022-09-25T16:09:29;19.50;1.00
108;DHT22;49;48.530;9.200;2022-09-25T16:12:17;19.20;1.00
108;DHT22;49;48.530;9.200;2022-09-25T16:14:45;19.10;1.00
108;DHT22;49;48.530;9.200;2022-09-25T16:17:21;19.20;1.00
108;DHT22;49;48.530;9.200;2022-09-25T16:19:59;19.40;1.00
108;DHT22;49;48.530;9.200;2022-09-25T16:22:33;19.50;1.00
108;DHT22;49;48.530;9.200;2022-09-25T16:25:01;19.60;1.00
108;DHT22;49;48.530;9.200;2022-09-25T16:27:32;19.60;1.00
108;DHT22;49;48.530;9.200;2022-09-25T16:30:01;19.70;1.00
108;DHT22;49;48.530;9.200;2022-09-25T16:32:29;19.70;1.00
108;DHT22;49;48.530;9.200;2022-09-25T16:34:58;19.70;1.00
108;DHT22;49;48.530;9.200;2022-09-25T16:37:30;19.60;1.00
108;DHT22;49;48.530;9.200;2022-09-25T16:40:22;19.30;1.00
108;DHT22;49;48.530;9.200;2022-09-25T16:42:50;19.10;1.00
108;DHT22;49;48.530;9.200;2022-09-25T16:45:20;19.10;1.00
108;DHT22;49;48.530;9.200;2022-09-25T16:47:56;19.20;1.00
108;DHT22;49;48.530;9.200;2022-09-25T16:50:26;19.10;1.00
108;DHT22;49;48.530;9.200;2022-09-25T16:55:24;19.10;1.00
108;DHT22;49;48.530;9.200;2022-09-25T16:57:57;18.80;1.00
108;DHT22;49;48.530;9.200;2022-09-25T17:00:27;18.40;1.00
108;DHT22;49;48.530;9.200;2022-09-25T17:02:57;18.40;1.00
108;DHT22;49;48.530;9.200;2022-09-25T17:05:28;18.50;1.00
108;DHT22;49;48.530;9.200;2022-09-25T17:07:58;18.10;1.00
108;DHT22;49;48.530;9.200;2022-09-25T17:10:28;18.30;1.00
108;DHT22;49;48.530;9.200;2022-09-25T17:12:59;18.20;1.00
108;DHT22;49;48.530;9.200;2022-09-25T17:17:58;18.10;1.00
108;DHT22;49;48.530;9.200;2022-09-25T17:20:28;18.30;1.00
108;DHT22;49;48.530;9.200;2022-09-25T17:22:58;18.60;1.00
108;DHT22;49;48.530;9.200;2022-09-25T17:25:37;18.30;1.00
108;DHT22;49;48.530;9.200;2022-09-25T17:28:06;18.40;1.00
108;DHT22;49;48.530;9.200;2022-09-25T17:30:34;18.10;1.00
108;DHT22;49;48.530;9.200;2022-09-25T17:33:04;18.00;1.00
108;DHT22;49;48.530;9.200;2022-09-25T17:35:40;17.90;1.00
108;DHT22;49;48.530;9.200;2022-09-25T17:38:10;18.20;1.00
108;DHT22;49;48.530;9.200;2022-09-25T17:40:39;18.60;1.00
108;DHT22;49;48.530;9.200;2022-09-25T17:43:08;18.70;1.00
108;DHT22;49;48.530;9.200;2022-09-25T17:45:42;18.70;1.00
108;DHT22;49;48.530;9.200;2022-09-25T17:48:15;18.70;1.00
108;DHT22;49;48.530;9.200;2022-09-25T17:50:48;18.30;1.00
108;DHT22;49;48.530;9.200;2022-09-25T17:53:18;18.20;1.00
108;DHT22;49;48.530;9.200;2022-09-25T17:55:47;18.00;1.00
108;DHT22;49;48.530;9.200;2022-09-25T17:58:15;18.10;1.00
108;DHT22;49;48.530;9.200;2022-09-25T18:00:43;18.40;1.00
108;DHT22;49;48.530;9.200;2022-09-25T18:03:11;18.60;1.00